createdAt,value
2017-10-01T00:01:36.351Z,69.67
2017-10-01T00:04:43.076Z,67.95
2017-10-01T00:07:49.826Z,67.09
2017-10-01T00:10:55.396Z,65.82
2017-10-01T00:14:03.090Z,66.63
2017-10-01T00:17:10.935Z,66.74
2017-10-01T00:20:17.461Z,65.69
2017-10-01T00:23:23.087Z,65.10
2017-10-01T00:26:29.506Z,65.03
2017-10-01T00:29:36.367Z,65.86
2017-10-01T00:32:43.955Z,67.09
2017-10-01T00:35:49.694Z,67.15
2017-10-01T00:38:55.481Z,67.74
2017-10-01T00:42:02.214Z,68.17
2017-10-01T00:45:07.746Z,68.55
2017-10-01T00:48:13.500Z,67.44
2017-10-01T00:51:19.177Z,66.66
2017-10-01T00:54:25.773Z,67.35
2017-10-01T00:57:33.429Z,67.82
2017-10-01T01:00:39.075Z,69.24
2017-10-01T01:03:45.967Z,68.47
2017-10-01T01:06:51.746Z,71.05
2017-10-01T01:09:58.499Z,70.32
2017-10-01T01:13:04.194Z,70.04
2017-10-01T01:16:11.812Z,70.51
2017-10-01T01:19:18.544Z,69.58
2017-10-01T01:22:26.015Z,69.75
2017-10-01T01:25:31.495Z,70.17
2017-10-01T01:28:38.122Z,68.66
2017-10-01T01:34:56.382Z,68.05
2017-10-01T01:38:02.766Z,67.26
2017-10-01T01:41:08.440Z,68.69
2017-10-01T01:44:15.019Z,68.31
2017-10-01T01:47:20.729Z,68.05
2017-10-01T01:50:27.595Z,68.27
2017-10-01T01:53:33.270Z,67.78
2017-10-01T01:56:39.858Z,69.08
2017-10-01T01:59:45.726Z,68.04
2017-10-01T02:02:52.395Z,68.72
2017-10-01T02:05:57.917Z,67.81
2017-10-01T02:09:05.778Z,66.67
2017-10-01T02:12:12.387Z,65.72
2017-10-01T02:15:18.099Z,65.44
2017-10-01T02:18:24.800Z,64.88
2017-10-01T02:21:31.449Z,65.71
2017-10-01T02:24:37.031Z,65.92
2017-10-01T02:27:43.691Z,65.82
2017-10-01T02:30:49.191Z,66.38
2017-10-01T02:33:55.941Z,66.28
2017-10-01T02:37:01.660Z,66.84
2017-10-01T02:40:09.125Z,66.26
2017-10-01T02:43:14.849Z,67.27
2017-10-01T02:46:21.486Z,66.32
2017-10-01T02:49:28.166Z,65.67
2017-10-01T02:52:35.038Z,65.14
2017-10-01T02:55:41.814Z,65.71
2017-10-01T02:58:49.539Z,67.90
2017-10-01T03:01:55.366Z,67.59
2017-10-01T03:05:03.089Z,65.63
2017-10-01T03:10:48.230Z,66.24
2017-10-01T03:13:53.882Z,65.45
2017-10-01T03:16:59.637Z,65.33
2017-10-01T03:20:06.315Z,65.56
2017-10-01T03:23:13.275Z,64.73
2017-10-01T03:26:18.808Z,64.23
2017-10-01T03:29:25.750Z,64.04
2017-10-01T03:32:32.417Z,63.98
2017-10-01T03:35:40.093Z,64.38
2017-10-01T03:38:45.779Z,64.14
2017-10-01T03:41:52.463Z,63.80
2017-10-01T03:44:58.208Z,63.84
2017-10-01T03:48:04.910Z,63.33
2017-10-01T03:51:10.924Z,63.41
2017-10-01T03:54:18.445Z,63.50
2017-10-01T03:57:24.268Z,63.34
2017-10-01T04:00:31.105Z,63.09
2017-10-01T04:03:36.768Z,62.90
2017-10-01T04:06:43.478Z,62.96
2017-10-01T04:09:50.246Z,62.75
2017-10-01T04:12:58.020Z,63.07
2017-10-01T04:16:04.824Z,62.65
2017-10-01T04:19:12.398Z,63.14
2017-10-01T04:22:18.321Z,63.38
2017-10-01T04:25:24.814Z,63.24
2017-10-01T04:28:30.363Z,62.85
2017-10-01T04:31:35.991Z,63.56
2017-10-01T04:34:41.591Z,62.80
2017-10-01T04:37:48.343Z,62.41
2017-10-01T04:40:54.150Z,62.65
2017-10-01T04:44:01.825Z,62.74
2017-10-01T04:47:07.534Z,63.25
2017-10-01T04:50:14.281Z,62.82
2017-10-01T04:53:20.986Z,62.62
2017-10-01T04:56:28.966Z,62.70
2017-10-01T04:59:34.994Z,62.84
2017-10-01T05:02:41.605Z,62.58
2017-10-01T05:05:47.374Z,62.27
2017-10-01T05:08:54.086Z,62.36
2017-10-01T05:11:59.745Z,62.40
2017-10-01T05:15:06.498Z,62.54
2017-10-01T05:18:13.308Z,62.87
2017-10-01T05:21:20.916Z,63.07
2017-10-01T05:24:27.512Z,62.68
2017-10-01T05:27:35.367Z,63.45
2017-10-01T05:30:42.200Z,63.78
2017-10-01T05:33:48.743Z,64.58
2017-10-01T05:36:55.214Z,64.52
2017-10-01T05:40:02.180Z,65.08
2017-10-01T05:43:07.977Z,65.41
2017-10-01T05:46:13.979Z,65.76
2017-10-01T05:49:20.505Z,65.36
2017-10-01T05:52:27.247Z,65.41
2017-10-01T05:55:33.888Z,65.69
2017-10-01T05:58:40.761Z,67.21
2017-10-01T06:01:46.357Z,67.90
2017-10-01T06:04:53.930Z,67.94
2017-10-01T06:07:59.649Z,68.36
2017-10-01T06:11:05.245Z,67.17
2017-10-01T06:14:10.959Z,66.23
2017-10-01T06:17:18.531Z,65.20
2017-10-01T06:20:25.201Z,64.88
2017-10-01T06:23:31.038Z,64.82
2017-10-01T06:26:37.738Z,64.27
2017-10-01T06:29:44.630Z,64.53
2017-10-01T06:32:51.205Z,64.15
2017-10-01T06:35:56.934Z,64.08
2017-10-01T06:39:03.543Z,63.85
2017-10-01T06:42:10.006Z,63.49
2017-10-01T06:45:15.894Z,63.87
2017-10-01T06:48:22.659Z,63.58
2017-10-01T06:51:28.414Z,63.44
2017-10-01T06:54:35.161Z,63.11
2017-10-01T06:57:40.701Z,63.65
2017-10-01T07:00:46.330Z,63.21
2017-10-01T07:03:52.134Z,62.25
2017-10-01T07:07:04.790Z,62.26
2017-10-01T07:10:11.587Z,61.89
2017-10-01T07:13:19.235Z,61.30
2017-10-01T07:16:24.953Z,61.46
2017-10-01T07:19:30.887Z,60.88
2017-10-01T07:22:36.754Z,59.54
2017-10-01T07:25:43.571Z,60.24
2017-10-01T07:28:49.196Z,61.39
2017-10-01T07:31:54.918Z,59.84
2017-10-01T07:35:00.699Z,60.00
2017-10-01T07:38:07.360Z,58.96
2017-10-01T07:41:13.020Z,58.80
2017-10-01T07:44:19.689Z,58.69
2017-10-01T07:47:25.395Z,59.42
2017-10-01T07:50:32.344Z,58.51
2017-10-01T07:53:37.853Z,56.28
2017-10-01T07:56:44.577Z,56.67
2017-10-01T07:59:50.436Z,56.86
2017-10-01T08:02:57.078Z,55.43
2017-10-01T08:06:02.842Z,57.12
2017-10-01T08:09:09.353Z,56.06
2017-10-01T08:12:15.143Z,57.44
2017-10-01T08:15:20.798Z,55.44
2017-10-01T08:18:26.355Z,56.61
2017-10-01T08:21:35.088Z,56.12
2017-10-01T08:24:49.991Z,57.79
2017-10-01T08:28:00.125Z,55.91
2017-10-01T08:31:15.122Z,54.40
2017-10-01T08:34:37.947Z,55.13
2017-10-01T08:37:43.561Z,53.60
2017-10-01T08:40:51.221Z,51.20
2017-10-01T08:43:58.096Z,51.59
2017-10-01T08:47:04.806Z,56.87
2017-10-01T08:50:11.518Z,55.06
2017-10-01T08:53:17.262Z,56.13
2017-10-01T09:04:10.848Z,57.87
2017-10-01T09:07:48.639Z,56.55
2017-10-01T09:14:30.431Z,57.03
2017-10-01T09:17:39.907Z,56.06
2017-10-01T09:21:01.303Z,56.46
2017-10-01T09:24:16.969Z,55.29
2017-10-01T09:27:31.480Z,56.46
2017-10-01T09:30:50.012Z,54.54
2017-10-01T09:34:14.661Z,53.81
2017-10-01T09:37:26.010Z,52.43
2017-10-01T09:40:35.784Z,53.63
2017-10-01T09:47:05.899Z,54.75
2017-10-01T09:50:17.828Z,54.33
2017-10-01T09:53:23.280Z,54.43
2017-10-01T09:56:39.143Z,52.02
2017-10-01T09:59:55.997Z,54.61
2017-10-01T10:03:05.081Z,55.87
2017-10-01T10:06:19.646Z,55.58
2017-10-01T10:09:28.156Z,56.89
2017-10-01T10:12:42.474Z,58.16
2017-10-01T10:15:48.257Z,57.43
2017-10-01T10:19:06.950Z,57.66
2017-10-01T10:22:31.389Z,56.03
2017-10-01T10:25:52.830Z,56.10
2017-10-01T10:29:00.522Z,55.02
2017-10-01T10:32:17.292Z,54.85
2017-10-01T10:39:01.498Z,55.94
2017-10-01T10:45:30.888Z,56.04
2017-10-01T10:52:07.006Z,56.51
2017-10-01T10:55:12.933Z,56.94
2017-10-01T11:05:28.951Z,56.37
2017-10-01T11:12:02.372Z,57.28
2017-10-01T11:18:36.752Z,57.60
2017-10-01T11:21:46.177Z,58.38
2017-10-01T11:24:53.079Z,58.97
2017-10-01T11:27:58.622Z,56.72
2017-10-01T11:31:07.182Z,56.15
2017-10-01T11:34:15.890Z,56.43
2017-10-01T11:37:23.658Z,57.90
2017-10-01T11:40:31.223Z,57.87
2017-10-01T11:43:38.921Z,56.54
2017-10-01T11:46:48.595Z,54.92
2017-10-01T11:49:54.217Z,55.37
2017-10-01T11:52:59.912Z,53.82
2017-10-01T11:56:05.620Z,55.14
2017-10-01T11:59:16.304Z,57.67
2017-10-01T12:02:21.930Z,56.34
2017-10-01T12:05:29.517Z,56.48
2017-10-01T12:08:43.161Z,54.49
2017-10-01T12:11:50.921Z,56.02
2017-10-01T12:18:19.005Z,56.11
2017-10-01T12:21:28.701Z,56.42
2017-10-01T12:24:35.325Z,53.23
2017-10-01T12:27:42.960Z,54.62
2017-10-01T12:30:50.616Z,56.29
2017-10-01T12:33:59.397Z,53.43
2017-10-01T12:39:55.885Z,57.44
2017-10-01T12:43:03.841Z,55.71
2017-10-01T12:46:11.516Z,55.83
2017-10-01T12:49:23.402Z,55.42
2017-10-01T12:52:29.808Z,55.08
2017-10-01T12:59:25.850Z,55.16
2017-10-01T13:02:33.656Z,55.07
2017-10-01T13:05:57.787Z,53.30
2017-10-01T13:09:14.781Z,55.06
2017-10-01T13:12:21.201Z,51.81
2017-10-01T13:15:34.838Z,51.08
2017-10-01T13:18:49.160Z,56.73
2017-10-01T13:21:56.062Z,54.22
2017-10-01T13:25:06.852Z,56.65
2017-10-01T13:28:18.841Z,56.01
2017-10-01T13:31:30.518Z,55.49
2017-10-01T13:34:44.273Z,53.71
2017-10-01T13:37:56.898Z,52.63
2017-10-01T13:41:02.710Z,52.26
2017-10-01T13:44:08.261Z,54.54
2017-10-01T13:47:15.205Z,54.52
2017-10-01T13:50:22.040Z,54.85
2017-10-01T13:53:27.722Z,55.11
2017-10-01T13:56:53.505Z,55.06
2017-10-01T13:59:59.283Z,52.06
2017-10-01T14:03:05.933Z,52.82
2017-10-01T14:06:16.575Z,52.87
2017-10-01T14:09:26.431Z,54.17
2017-10-01T14:12:33.045Z,54.09
2017-10-01T14:15:39.666Z,52.91
2017-10-01T14:18:46.682Z,54.81
2017-10-01T14:21:57.258Z,54.57
2017-10-01T14:25:03.972Z,53.70
2017-10-01T14:28:15.498Z,53.87
2017-10-01T14:31:28.279Z,56.67
2017-10-01T14:34:37.859Z,54.54
2017-10-01T14:37:44.837Z,54.50
2017-10-01T14:44:14.611Z,55.04
2017-10-01T14:47:23.385Z,54.94
2017-10-01T14:50:35.041Z,56.09
2017-10-01T14:53:43.924Z,56.98
2017-10-01T14:56:50.523Z,56.36
2017-10-01T15:00:02.344Z,57.31
2017-10-01T15:03:13.992Z,54.88
2017-10-01T15:06:21.684Z,55.48
2017-10-01T15:09:27.284Z,53.89
2017-10-01T15:12:39.363Z,55.05
2017-10-01T15:15:46.128Z,53.51
2017-10-01T15:18:55.693Z,54.99
2017-10-01T15:22:02.234Z,54.63
2017-10-01T15:25:15.996Z,53.87
2017-10-01T15:28:21.645Z,54.22
2017-10-01T15:31:28.050Z,54.50
2017-10-01T15:34:33.376Z,56.23
2017-10-01T15:37:41.048Z,56.27
2017-10-01T15:40:46.669Z,56.57
2017-10-01T15:43:53.210Z,55.63
2017-10-01T15:46:58.831Z,57.30
2017-10-01T15:50:06.395Z,57.09
2017-10-01T15:53:13.121Z,57.04
2017-10-01T15:56:22.938Z,57.57
2017-10-01T15:59:36.467Z,58.02
2017-10-01T16:02:49.054Z,57.43
2017-10-01T16:06:02.897Z,58.90
2017-10-01T16:09:09.509Z,57.98
2017-10-01T16:12:16.242Z,57.40
2017-10-01T16:15:25.702Z,57.92
2017-10-01T16:18:40.478Z,58.18
2017-10-01T16:21:53.112Z,58.59
2017-10-01T16:24:58.901Z,57.84
2017-10-01T16:41:13.470Z,57.54
2017-10-01T16:44:20.655Z,57.42
2017-10-01T16:47:39.239Z,58.03
2017-10-01T16:50:45.832Z,58.05
2017-10-01T16:53:54.692Z,58.05
2017-10-01T16:57:01.124Z,58.21
2017-10-01T17:00:06.857Z,57.88
2017-10-01T17:03:14.382Z,58.42
2017-10-01T17:06:21.245Z,58.38
2017-10-01T17:09:33.781Z,58.91
2017-10-01T17:12:39.537Z,58.22
2017-10-01T17:15:45.110Z,57.69
2017-10-01T17:18:50.834Z,58.07
2017-10-01T17:22:14.084Z,57.91
2017-10-01T17:25:19.678Z,58.32
2017-10-01T17:28:32.561Z,59.60
2017-10-01T17:31:38.134Z,59.70
2017-10-01T17:35:06.895Z,59.30
2017-10-01T17:38:18.279Z,60.73
2017-10-01T17:41:36.676Z,60.86
2017-10-01T17:44:42.276Z,61.79
2017-10-01T17:47:51.078Z,63.03
2017-10-01T17:50:57.693Z,63.07
2017-10-01T17:54:04.267Z,64.71
2017-10-01T17:57:10.926Z,64.33
2017-10-01T18:00:18.539Z,64.07
2017-10-01T18:03:26.320Z,63.43
2017-10-01T18:06:33.924Z,62.74
2017-10-01T18:09:40.762Z,62.13
2017-10-01T18:12:48.462Z,61.89
2017-10-01T18:15:54.182Z,62.77
2017-10-01T18:19:01.058Z,62.31
2017-10-01T18:22:07.611Z,60.96
2017-10-01T18:25:14.253Z,60.86
2017-10-01T18:28:21.343Z,61.19
2017-10-01T18:31:26.882Z,60.78
2017-10-01T18:34:33.341Z,62.32
2017-10-01T18:37:39.507Z,61.52
2017-10-01T18:40:45.998Z,61.14
2017-10-01T18:43:51.205Z,60.36
2017-10-01T18:46:57.089Z,59.59
2017-10-01T18:56:02.429Z,60.19
2017-10-01T18:59:07.861Z,59.93
2017-10-01T19:02:17.612Z,60.41
2017-10-01T19:05:23.322Z,61.29
2017-10-01T19:08:30.148Z,61.25
2017-10-01T19:11:36.848Z,61.61
2017-10-01T19:14:43.558Z,63.13
2017-10-01T19:17:49.331Z,62.99
2017-10-01T19:20:55.934Z,63.41
2017-10-01T19:24:01.842Z,64.17
2017-10-01T19:27:08.514Z,64.50
2017-10-01T19:30:14.953Z,64.46
2017-10-01T19:33:22.085Z,64.51
2017-10-01T19:36:29.963Z,63.79
2017-10-01T19:39:37.544Z,64.37
2017-10-01T19:42:44.069Z,64.57
2017-10-01T19:45:50.867Z,64.48
2017-10-01T19:48:56.526Z,64.38
2017-10-01T19:52:02.230Z,63.23
2017-10-01T19:55:08.035Z,65.14
2017-10-01T20:01:13.323Z,63.81
2017-10-01T20:03:42.539Z,63.42
2017-10-01T20:06:29.248Z,63.07
2017-10-01T20:15:47.995Z,63.25
2017-10-01T20:18:17.993Z,63.47
2017-10-01T20:20:47.867Z,62.46
2017-10-01T20:23:17.529Z,62.99
2017-10-01T20:25:47.497Z,62.25
2017-10-01T20:28:17.511Z,61.74
2017-10-01T20:30:48.777Z,62.74
2017-10-01T20:33:23.020Z,62.42
2017-10-01T20:41:10.951Z,60.93
2017-10-01T20:43:40.109Z,62.13
2017-10-01T20:46:10.552Z,61.13
2017-10-01T20:48:40.416Z,61.35
2017-10-01T20:51:10.662Z,62.29
2017-10-01T20:53:41.241Z,62.42
2017-10-01T20:56:10.283Z,61.72
2017-10-01T20:58:42.388Z,61.47
2017-10-01T21:01:15.050Z,62.45
2017-10-01T21:03:45.974Z,61.92
2017-10-01T21:06:16.464Z,63.21
2017-10-01T21:08:48.835Z,62.28
2017-10-01T21:11:19.786Z,61.32
2017-10-01T21:13:49.517Z,62.29
2017-10-01T21:16:19.158Z,62.31
2017-10-01T21:18:48.791Z,62.68
2017-10-01T21:21:18.636Z,62.27
2017-10-01T21:23:47.985Z,63.64
